createdAt,value
2023-05-02T00:00:18.813Z,12.60
2023-05-02T00:02:24.513Z,15.63
2023-05-02T00:04:29.804Z,16.58
2023-05-02T00:06:35.595Z,13.98
2023-05-02T00:08:40.802Z,12.40
2023-05-02T00:10:46.484Z,15.00
2023-05-02T00:12:51.537Z,18.35
2023-05-02T00:14:56.914Z,13.52
2023-05-02T00:17:05.617Z,15.65
2023-05-02T00:19:10.908Z,12.98
2023-05-02T00:21:16.741Z,14.07
2023-05-02T00:23:21.852Z,16.95
2023-05-02T00:25:26.858Z,16.38
2023-05-02T00:27:33.946Z,14.27
2023-05-02T00:29:39.477Z,12.95
2023-05-02T00:31:44.745Z,16.52
2023-05-02T00:33:52.384Z,16.25
2023-05-02T00:35:57.839Z,19.40
2023-05-02T00:38:03.502Z,13.07
2023-05-02T00:40:10.886Z,15.65
2023-05-02T00:42:16.261Z,13.52
2023-05-02T00:44:22.208Z,12.65
2023-05-02T00:46:27.432Z,13.55
2023-05-02T00:48:33.006Z,16.13
2023-05-02T00:50:46.117Z,13.07
2023-05-02T00:52:51.468Z,14.55
2023-05-02T00:54:57.400Z,19.77
2023-05-02T00:57:03.815Z,13.45
2023-05-02T00:59:10.146Z,14.70
2023-05-02T01:01:36.043Z,17.42
2023-05-02T01:03:54.264Z,14.25
2023-05-02T01:06:16.046Z,17.88
2023-05-02T01:08:34.367Z,19.30
2023-05-02T01:10:53.192Z,14.75
2023-05-02T01:13:06.669Z,15.95
2023-05-02T01:15:19.695Z,15.60
2023-05-02T01:19:39.167Z,14.48
2023-05-02T01:21:47.562Z,19.23
2023-05-02T01:24:05.887Z,18.73
2023-05-02T01:26:23.552Z,16.35
2023-05-02T01:28:39.546Z,15.05
2023-05-02T01:30:50.933Z,17.60
2023-05-02T01:32:59.958Z,18.35
2023-05-02T01:35:08.059Z,16.20
2023-05-02T01:37:15.699Z,14.45
2023-05-02T01:39:26.021Z,18.13
2023-05-02T01:41:35.542Z,17.25
2023-05-02T01:43:42.670Z,14.75
2023-05-02T01:45:54.395Z,16.55
2023-05-02T01:48:01.124Z,17.60
2023-05-02T01:50:10.963Z,16.98
2023-05-02T01:52:18.615Z,18.98
2023-05-02T01:54:26.987Z,17.83
2023-05-02T01:56:35.778Z,15.43
2023-05-02T01:58:41.827Z,21.50
2023-05-02T02:00:48.712Z,21.90
2023-05-02T02:03:00.595Z,17.27
2023-05-02T02:05:10.975Z,21.40
2023-05-02T02:07:17.321Z,20.10
2023-05-02T02:09:22.637Z,20.25
2023-05-02T02:11:39.495Z,17.75
2023-05-02T02:13:51.661Z,17.48
2023-05-02T02:16:04.435Z,13.43
2023-05-02T02:18:17.818Z,17.10
2023-05-02T02:20:24.788Z,18.15
2023-05-02T02:22:32.403Z,13.93
2023-05-02T02:24:41.909Z,15.15
2023-05-02T02:26:47.837Z,14.63
2023-05-02T02:28:53.415Z,15.35
2023-05-02T02:30:59.425Z,13.88
2023-05-02T02:33:04.901Z,14.55
2023-05-02T02:35:14.242Z,16.02
2023-05-02T02:37:22.950Z,16.27
2023-05-02T02:39:47.361Z,13.32
2023-05-02T02:42:04.818Z,16.00
2023-05-02T02:44:25.992Z,16.52
2023-05-02T02:46:45.349Z,15.73
2023-05-02T02:48:59.588Z,15.80
2023-05-02T02:51:16.233Z,13.40
2023-05-02T02:53:28.862Z,14.80
2023-05-02T02:55:47.746Z,14.63
2023-05-02T02:58:02.681Z,18.70
2023-05-02T03:00:16.452Z,13.02
2023-05-02T03:02:25.906Z,15.02
2023-05-02T03:04:33.437Z,12.70
2023-05-02T03:06:42.435Z,18.73
2023-05-02T03:08:48.442Z,17.65
2023-05-02T03:10:57.352Z,15.32
2023-05-02T03:13:02.426Z,14.00
2023-05-02T03:15:24.771Z,19.15
2023-05-02T03:17:30.445Z,14.90
2023-05-02T03:19:35.779Z,11.95
2023-05-02T03:21:43.682Z,13.10
2023-05-02T03:23:55.044Z,15.15
2023-05-02T03:26:00.325Z,11.70
2023-05-02T03:28:05.840Z,12.85
2023-05-02T03:30:12.773Z,16.92
2023-05-02T03:32:17.789Z,11.98
2023-05-02T03:34:23.727Z,14.10
2023-05-02T03:36:30.364Z,13.98
2023-05-02T03:38:38.037Z,13.68
2023-05-02T03:40:47.061Z,21.50
2023-05-02T03:42:52.120Z,17.38
2023-05-02T03:45:06.682Z,12.60
2023-05-02T03:47:13.815Z,15.68
2023-05-02T03:49:20.630Z,15.35
2023-05-02T03:51:28.054Z,14.40
2023-05-02T03:53:38.499Z,14.50
2023-05-02T03:55:44.750Z,16.60
2023-05-02T03:57:56.742Z,25.08
2023-05-02T04:00:02.233Z,20.60
2023-05-02T04:02:17.120Z,16.02
2023-05-02T04:04:26.184Z,14.10
2023-05-02T04:06:33.273Z,14.98
2023-05-02T04:08:44.967Z,15.23
2023-05-02T04:10:50.522Z,15.27
2023-05-02T04:12:55.615Z,14.70
2023-05-02T04:15:01.970Z,15.82
2023-05-02T04:17:08.760Z,15.82
2023-05-02T04:19:22.084Z,15.57
2023-05-02T04:21:27.761Z,15.50
2023-05-02T04:23:33.648Z,13.70
2023-05-02T04:25:43.051Z,17.42
2023-05-02T04:27:48.919Z,19.15
2023-05-02T04:29:58.567Z,16.73
2023-05-02T04:32:03.933Z,15.75
2023-05-02T04:34:10.400Z,13.50
2023-05-02T04:36:20.680Z,16.98
2023-05-02T04:38:26.434Z,14.13
2023-05-02T04:40:32.394Z,12.55
2023-05-02T04:42:44.870Z,14.77
2023-05-02T04:44:55.813Z,19.90
2023-05-02T04:47:00.925Z,15.68
2023-05-02T04:49:06.559Z,17.15
2023-05-02T04:51:12.829Z,14.52
2023-05-02T04:53:20.920Z,14.13
2023-05-02T04:55:26.523Z,16.63
2023-05-02T04:57:31.674Z,21.48
2023-05-02T04:59:41.483Z,17.80
2023-05-02T05:01:47.851Z,13.30
2023-05-02T05:03:53.252Z,15.93
2023-05-02T05:05:58.760Z,15.57
2023-05-02T05:08:04.531Z,14.70
2023-05-02T05:10:14.119Z,14.55
2023-05-02T05:12:23.492Z,14.77
2023-05-02T05:14:29.378Z,13.02
2023-05-02T05:16:37.739Z,14.63
2023-05-02T05:18:43.198Z,16.52
2023-05-02T05:20:50.991Z,15.65
2023-05-02T05:22:56.168Z,17.45
2023-05-02T05:25:02.944Z,11.18
2023-05-02T05:27:10.276Z,17.08
2023-05-02T05:29:15.720Z,16.23
2023-05-02T05:31:23.293Z,13.55
2023-05-02T05:33:36.275Z,11.52
2023-05-02T05:35:42.472Z,10.73
2023-05-02T05:37:47.969Z,17.27
2023-05-02T05:39:55.489Z,13.05
2023-05-02T05:42:02.740Z,12.55
2023-05-02T05:44:08.580Z,13.02
2023-05-02T05:46:14.127Z,12.80
2023-05-02T05:48:19.240Z,10.95
2023-05-02T05:50:27.906Z,13.48
2023-05-02T05:52:32.940Z,12.43
2023-05-02T05:54:39.927Z,13.00
2023-05-02T05:56:45.017Z,13.32
2023-05-02T05:58:54.920Z,10.85
2023-05-02T06:01:00.422Z,14.98
2023-05-02T06:03:07.395Z,13.95
2023-05-02T06:05:14.551Z,16.95
2023-05-02T06:07:23.905Z,16.30
2023-05-02T06:09:29.236Z,16.48
2023-05-02T06:11:34.918Z,23.50
2023-05-02T06:13:39.987Z,19.08
2023-05-02T06:15:46.390Z,16.30
2023-05-02T06:17:53.282Z,17.83
2023-05-02T06:19:58.582Z,18.23
2023-05-02T06:22:04.307Z,18.67
2023-05-02T06:24:12.077Z,19.77
2023-05-02T06:26:17.534Z,18.10
2023-05-02T06:28:22.808Z,20.38
2023-05-02T06:30:28.103Z,17.95
2023-05-02T06:32:34.249Z,20.52
2023-05-02T06:34:39.358Z,19.58
2023-05-02T06:36:44.545Z,20.30
2023-05-02T06:38:50.401Z,23.13
2023-05-02T06:40:58.308Z,21.90
2023-05-02T06:43:03.603Z,21.75
2023-05-02T06:45:10.379Z,17.65
2023-05-02T06:47:15.913Z,21.05
2023-05-02T06:49:21.004Z,22.70
2023-05-02T06:51:26.425Z,18.20
2023-05-02T06:53:33.028Z,21.45
2023-05-02T06:55:38.351Z,22.63
2023-05-02T06:57:46.516Z,21.80
2023-05-02T06:59:51.523Z,19.52
2023-05-02T07:01:57.014Z,25.77
2023-05-02T07:04:04.060Z,22.10
2023-05-02T07:06:09.235Z,22.27
2023-05-02T07:08:14.357Z,22.00
2023-05-02T07:10:19.400Z,24.85
2023-05-02T07:12:24.872Z,22.73
2023-05-02T07:14:32.488Z,24.30
2023-05-02T07:16:37.630Z,23.52
2023-05-02T07:18:42.946Z,21.90
2023-05-02T07:20:48.634Z,24.00
2023-05-02T07:22:54.258Z,22.20
2023-05-02T07:25:04.457Z,21.15
2023-05-02T07:27:09.513Z,22.02
2023-05-02T07:29:14.522Z,22.95
2023-05-02T07:31:22.369Z,20.83
2023-05-02T07:33:27.989Z,22.10
2023-05-02T07:35:33.047Z,22.70
2023-05-02T07:37:38.824Z,20.73
2023-05-02T07:39:43.860Z,21.95
2023-05-02T07:41:48.911Z,26.30
2023-05-02T07:43:54.413Z,25.05
2023-05-02T07:45:59.481Z,29.05
2023-05-02T07:48:08.443Z,23.77
2023-05-02T07:50:14.461Z,22.77
2023-05-02T07:52:19.482Z,22.40
2023-05-02T07:54:26.385Z,23.13
2023-05-02T07:56:33.493Z,21.50
2023-05-02T07:58:39.078Z,23.98
2023-05-02T08:00:44.097Z,23.92
2023-05-02T08:02:49.148Z,21.42
2023-05-02T08:04:56.864Z,21.52
2023-05-02T08:07:01.913Z,21.13
2023-05-02T08:09:07.064Z,21.10
2023-05-02T08:11:12.156Z,24.80
2023-05-02T08:13:17.225Z,24.30
2023-05-02T08:15:22.235Z,23.85
2023-05-02T08:17:29.279Z,26.05
2023-05-02T08:19:34.414Z,26.52
2023-05-02T08:21:42.032Z,26.60
2023-05-02T08:23:47.051Z,25.20
2023-05-02T08:25:52.115Z,25.38
2023-05-02T08:27:57.142Z,25.63
2023-05-02T08:30:02.383Z,21.95
2023-05-02T08:32:08.408Z,22.35
2023-05-02T08:34:13.510Z,25.90
2023-05-02T08:36:20.444Z,24.38
2023-05-02T08:38:28.330Z,22.73
2023-05-02T08:40:42.372Z,25.40
2023-05-02T08:42:48.287Z,23.23
2023-05-02T08:44:54.233Z,26.42
2023-05-02T08:47:00.248Z,27.02
2023-05-02T08:49:06.386Z,26.88
2023-05-02T08:51:13.391Z,20.58
2023-05-02T08:53:20.825Z,22.40
2023-05-02T08:55:29.429Z,24.25
2023-05-02T08:57:34.949Z,21.48
2023-05-02T08:59:40.337Z,21.08
2023-05-02T09:01:49.006Z,25.75
2023-05-02T09:03:56.066Z,23.20
2023-05-02T09:06:10.325Z,19.95
2023-05-02T09:08:16.647Z,24.77
2023-05-02T09:10:22.359Z,21.13
2023-05-02T09:12:31.303Z,18.15
2023-05-02T09:14:36.667Z,19.42
2023-05-02T09:16:42.723Z,20.08
2023-05-02T09:18:50.264Z,16.55
2023-05-02T09:20:56.309Z,17.60
2023-05-02T09:23:01.340Z,16.13
2023-05-02T09:25:07.810Z,17.33
2023-05-02T09:27:13.406Z,15.57
2023-05-02T09:29:23.441Z,15.98
2023-05-02T09:31:53.992Z,18.70
2023-05-02T09:33:57.088Z,16.70
2023-05-02T09:36:02.119Z,19.98
2023-05-02T09:38:07.264Z,18.10
2023-05-02T09:40:14.354Z,13.57
2023-05-02T09:42:34.212Z,13.10
2023-05-02T09:44:43.321Z,11.45
2023-05-02T09:46:51.481Z,8.68
2023-05-02T09:48:58.441Z,6.13
2023-05-02T09:51:05.190Z,8.35
2023-05-02T09:53:12.317Z,11.48
2023-05-02T09:55:24.251Z,11.23
2023-05-02T09:57:43.556Z,12.40
2023-05-02T10:00:01.128Z,10.05
2023-05-02T10:02:09.829Z,9.63
2023-05-02T10:04:18.980Z,9.27
2023-05-02T10:06:24.801Z,8.50
2023-05-02T10:08:31.554Z,10.15
2023-05-02T10:10:39.385Z,8.98
2023-05-02T10:12:45.280Z,11.63
2023-05-02T10:14:59.464Z,8.98
2023-05-02T10:17:14.454Z,8.00
2023-05-02T10:19:26.926Z,8.73
2023-05-02T10:21:32.994Z,7.78
2023-05-02T10:23:38.882Z,7.45
2023-05-02T10:25:44.320Z,7.93
2023-05-02T10:27:50.631Z,7.20
2023-05-02T10:29:56.351Z,7.85
2023-05-02T10:32:03.994Z,6.53
2023-05-02T10:34:13.910Z,7.80
2023-05-02T10:36:22.984Z,9.05
2023-05-02T10:38:28.758Z,8.95
2023-05-02T10:40:34.327Z,5.95
2023-05-02T10:42:43.053Z,8.75
2023-05-02T10:44:49.105Z,6.60
2023-05-02T10:46:54.416Z,8.07
2023-05-02T10:49:11.977Z,7.55
2023-05-02T10:51:32.150Z,9.40
2023-05-02T10:53:39.771Z,6.40
2023-05-02T10:55:44.851Z,8.20
2023-05-02T10:58:24.285Z,7.72
2023-05-02T11:00:32.503Z,6.88
2023-05-02T11:02:53.393Z,3.83
2023-05-02T11:05:09.353Z,4.22
2023-05-02T11:07:22.430Z,4.32
2023-05-02T11:09:38.888Z,2.95
2023-05-02T11:11:45.417Z,5.05
2023-05-02T11:13:53.607Z,2.78
2023-05-02T11:16:02.185Z,3.05
2023-05-02T11:18:10.000Z,4.72
2023-05-02T11:20:35.265Z,7.15
2023-05-02T11:22:40.890Z,2.92
2023-05-02T11:24:47.950Z,2.53
2023-05-02T11:26:53.117Z,2.65
2023-05-02T11:28:58.197Z,4.75
2023-05-02T11:31:03.717Z,3.08
2023-05-02T11:33:20.666Z,2.22
2023-05-02T11:35:28.036Z,3.17
2023-05-02T11:37:36.593Z,2.45
2023-05-02T11:39:41.717Z,1.55
2023-05-02T11:41:48.436Z,1.80
2023-05-02T11:44:06.661Z,2.15
2023-05-02T11:46:12.753Z,1.92
2023-05-02T11:48:22.545Z,1.13
2023-05-02T11:50:30.447Z,3.40
2023-05-02T11:52:41.466Z,2.05
2023-05-02T11:54:47.508Z,2.80
2023-05-02T11:56:52.624Z,4.30
2023-05-02T11:59:02.018Z,3.90
2023-05-02T12:01:17.741Z,3.47
2023-05-02T12:03:29.861Z,5.93
2023-05-02T12:05:36.059Z,3.87
2023-05-02T12:07:45.975Z,4.20
2023-05-02T12:09:54.921Z,2.95
2023-05-02T12:12:02.103Z,3.53
2023-05-02T12:14:08.414Z,3.55
2023-05-02T12:16:13.624Z,3.45
2023-05-02T12:18:21.520Z,3.05
2023-05-02T12:20:28.335Z,3.55
2023-05-02T12:22:34.069Z,3.80
2023-05-02T12:24:43.683Z,4.97
2023-05-02T12:26:50.129Z,1.83
2023-05-02T12:28:58.386Z,4.10
2023-05-02T12:31:13.927Z,2.60
2023-05-02T12:33:19.580Z,3.70
2023-05-02T12:35:25.773Z,3.92
2023-05-02T12:37:31.908Z,1.50
2023-05-02T12:39:44.492Z,1.27
2023-05-02T12:41:49.593Z,1.10
2023-05-02T12:43:54.789Z,2.58
2023-05-02T12:46:13.657Z,2.35
2023-05-02T12:48:36.742Z,1.90
2023-05-02T12:50:42.730Z,1.35
2023-05-02T12:52:57.646Z,1.95
2023-05-02T12:55:24.615Z,1.25
2023-05-02T12:57:30.331Z,4.32
2023-05-02T12:59:36.156Z,2.67
2023-05-02T13:01:41.657Z,1.52
2023-05-02T13:03:48.438Z,0.52
2023-05-02T13:05:57.311Z,1.40
2023-05-02T13:08:03.133Z,1.67
2023-05-02T13:10:09.705Z,1.65
2023-05-02T13:12:18.433Z,1.35
2023-05-02T13:14:23.482Z,1.08
2023-05-02T13:16:30.507Z,2.55
2023-05-02T13:18:36.509Z,1.27
2023-05-02T13:20:41.619Z,1.60
2023-05-02T13:22:46.905Z,2.58
2023-05-02T13:24:51.943Z,1.27
2023-05-02T13:26:57.914Z,2.30
2023-05-02T13:29:06.200Z,1.17
2023-05-02T13:31:11.470Z,2.67
2023-05-02T13:33:17.386Z,2.08
2023-05-02T13:35:22.448Z,4.10
2023-05-02T13:37:28.268Z,1.02
2023-05-02T13:39:33.335Z,1.17
2023-05-02T13:41:38.723Z,1.48
2023-05-02T13:43:43.742Z,1.25
2023-05-02T13:45:52.561Z,1.25
2023-05-02T13:47:58.065Z,1.38
2023-05-02T13:50:03.715Z,2.97
2023-05-02T13:52:09.610Z,1.30
2023-05-02T13:54:15.420Z,5.70
2023-05-02T13:56:21.054Z,2.95
2023-05-02T13:58:26.273Z,1.95
2023-05-02T14:00:31.861Z,2.92
2023-05-02T14:02:40.261Z,0.90
2023-05-02T14:04:45.279Z,2.75
2023-05-02T14:06:50.635Z,1.50
2023-05-02T14:08:56.274Z,1.95
2023-05-02T14:11:01.333Z,2.13
2023-05-02T14:13:06.794Z,1.80
2023-05-02T14:15:13.245Z,2.47
2023-05-02T14:17:18.247Z,1.35
2023-05-02T14:19:26.348Z,1.00
2023-05-02T14:21:31.920Z,0.90
2023-05-02T14:23:37.390Z,0.82
2023-05-02T14:25:42.592Z,2.65
2023-05-02T14:27:47.639Z,3.67
2023-05-02T14:29:52.908Z,2.85
2023-05-02T14:31:57.981Z,4.03
2023-05-02T14:34:03.511Z,4.20
2023-05-02T14:36:12.669Z,4.93
2023-05-02T14:38:17.988Z,3.67
2023-05-02T14:40:23.019Z,6.97
2023-05-02T14:42:28.609Z,4.30
2023-05-02T14:44:33.942Z,4.85
2023-05-02T14:46:39.259Z,5.03
2023-05-02T14:48:44.810Z,4.45
2023-05-02T14:50:49.812Z,3.97
2023-05-02T14:52:57.669Z,3.60
2023-05-02T14:55:03.631Z,4.35
2023-05-02T14:57:09.259Z,7.10
2023-05-02T14:59:14.574Z,5.50
2023-05-02T15:01:20.859Z,5.25
2023-05-02T15:03:26.389Z,5.40
2023-05-02T15:05:31.772Z,5.10
2023-05-02T15:07:36.799Z,8.85
2023-05-02T15:09:44.819Z,6.45
2023-05-02T15:11:49.846Z,5.88
2023-05-02T15:13:56.593Z,5.63
2023-05-02T15:16:03.927Z,7.68
2023-05-02T15:18:09.228Z,6.60
2023-05-02T15:20:16.136Z,7.03
2023-05-02T15:22:22.444Z,7.80
2023-05-02T15:24:27.897Z,8.25
2023-05-02T15:26:36.357Z,9.32
2023-05-02T15:28:41.590Z,10.68
2023-05-02T15:30:46.933Z,10.90
2023-05-02T15:32:52.081Z,8.63
2023-05-02T15:34:57.670Z,9.95
2023-05-02T15:37:03.884Z,8.02
2023-05-02T15:39:09.919Z,7.35
2023-05-02T15:41:14.971Z,8.80
2023-05-02T15:43:23.031Z,9.18
2023-05-02T15:45:28.689Z,8.63
2023-05-02T15:47:33.895Z,7.38
2023-05-02T15:49:39.189Z,6.65
2023-05-02T15:51:44.237Z,6.80
2023-05-02T15:53:52.501Z,7.22
2023-05-02T15:55:58.073Z,9.32
2023-05-02T15:58:03.107Z,6.95
2023-05-02T16:00:17.013Z,8.02
2023-05-02T16:02:22.176Z,8.05
2023-05-02T16:04:28.770Z,7.07
2023-05-02T16:06:34.720Z,9.27
2023-05-02T16:08:39.768Z,9.45
2023-05-02T16:10:45.036Z,6.60
2023-05-02T16:12:50.134Z,8.18
2023-05-02T16:14:55.442Z,7.28
2023-05-02T16:17:04.129Z,8.55
2023-05-02T16:19:13.577Z,7.55
2023-05-02T16:21:19.078Z,7.85
2023-05-02T16:23:24.426Z,11.55
2023-05-02T16:25:30.114Z,10.50
2023-05-02T16:27:36.514Z,9.13
2023-05-02T16:29:42.067Z,9.23
2023-05-02T16:31:47.372Z,9.82
2023-05-02T16:33:55.240Z,9.90
2023-05-02T16:36:04.645Z,10.20
2023-05-02T16:38:09.773Z,10.18
2023-05-02T16:40:16.413Z,10.25
2023-05-02T16:42:21.463Z,10.10
2023-05-02T16:44:26.561Z,7.45
2023-05-02T16:46:32.119Z,8.00
2023-05-02T16:48:37.857Z,6.75
2023-05-02T16:50:45.449Z,8.93
2023-05-02T16:52:50.823Z,8.77
2023-05-02T16:54:56.135Z,8.85
2023-05-02T16:57:02.800Z,7.97
2023-05-02T16:59:07.809Z,7.50
2023-05-02T17:01:13.029Z,6.72
2023-05-02T17:03:18.115Z,6.10
2023-05-02T17:05:23.617Z,8.68
2023-05-02T17:07:31.518Z,7.13
2023-05-02T17:09:37.180Z,7.05
2023-05-02T17:11:42.284Z,7.43
2023-05-02T17:13:47.419Z,8.60
2023-05-02T17:15:53.018Z,7.63
2023-05-02T17:17:58.081Z,6.75
2023-05-02T17:20:03.725Z,6.78
2023-05-02T17:22:10.241Z,6.43
2023-05-02T17:24:18.002Z,6.85
2023-05-02T17:26:23.044Z,8.38
2023-05-02T17:28:28.660Z,6.53
2023-05-02T17:30:34.483Z,7.10
2023-05-02T17:32:40.366Z,7.75
2023-05-02T17:34:45.780Z,12.60
2023-05-02T17:36:50.823Z,10.15
2023-05-02T17:38:56.664Z,14.40
2023-05-02T17:41:04.316Z,15.38
2023-05-02T17:43:09.648Z,15.20
2023-05-02T17:45:15.171Z,12.90
2023-05-02T17:47:20.328Z,9.05
2023-05-02T17:49:26.639Z,10.68
2023-05-02T17:51:32.202Z,10.48
2023-05-02T17:53:37.825Z,15.30
2023-05-02T17:55:42.846Z,14.48
2023-05-02T17:57:50.454Z,13.38
2023-05-02T17:59:58.527Z,12.88
2023-05-02T18:02:04.064Z,14.52
2023-05-02T18:04:13.062Z,14.10
2023-05-02T18:06:19.439Z,14.30
2023-05-02T18:08:24.496Z,17.63
2023-05-02T18:10:30.258Z,12.90
2023-05-02T18:12:35.939Z,16.30
2023-05-02T18:14:43.835Z,15.05
2023-05-02T18:16:49.217Z,13.43
2023-05-02T18:18:54.481Z,16.05
2023-05-02T18:20:59.675Z,12.75
2023-05-02T18:23:06.174Z,16.63
2023-05-02T18:25:11.860Z,15.70
2023-05-02T18:27:16.908Z,14.98
2023-05-02T18:29:21.996Z,19.30
2023-05-02T18:31:29.657Z,11.43
2023-05-02T18:33:35.010Z,10.10
2023-05-02T18:35:40.048Z,14.32
2023-05-02T18:37:45.049Z,13.23
2023-05-02T18:39:50.061Z,13.27
2023-05-02T18:41:55.075Z,13.27
2023-05-02T18:44:00.933Z,13.25
2023-05-02T18:46:06.041Z,14.60
2023-05-02T18:48:13.643Z,15.95
2023-05-02T18:50:18.710Z,12.73
2023-05-02T18:52:24.811Z,14.30
2023-05-02T18:54:29.832Z,12.98
2023-05-02T18:56:35.400Z,11.55
2023-05-02T18:58:40.416Z,17.02
2023-05-02T19:00:45.958Z,20.25
2023-05-02T19:02:54.417Z,15.32
2023-05-02T19:05:02.879Z,15.55
2023-05-02T19:07:09.339Z,13.10
2023-05-02T19:09:15.882Z,12.95
2023-05-02T19:11:23.065Z,12.95
2023-05-02T19:13:28.494Z,14.07
2023-05-02T19:15:33.500Z,15.40
2023-05-02T19:17:39.416Z,13.07
2023-05-02T19:19:46.831Z,15.93
2023-05-02T19:21:55.266Z,11.15
2023-05-02T19:24:00.384Z,13.75
2023-05-02T19:26:06.048Z,15.18
2023-05-02T19:28:13.122Z,10.82
2023-05-02T19:30:18.668Z,13.38
2023-05-02T19:32:25.524Z,14.05
2023-05-02T19:34:31.970Z,16.20
2023-05-02T19:36:37.010Z,17.70
2023-05-02T19:38:45.402Z,20.85
2023-05-02T19:40:50.547Z,11.77
2023-05-02T19:42:57.242Z,13.93
2023-05-02T19:45:02.644Z,14.57
2023-05-02T19:47:08.048Z,16.05
2023-05-02T19:49:13.826Z,10.10
2023-05-02T19:51:25.337Z,9.93
2023-05-02T19:53:31.608Z,11.75
2023-05-02T19:55:39.251Z,16.23
2023-05-02T19:57:45.161Z,16.02
2023-05-02T19:59:50.169Z,13.85
2023-05-02T20:01:55.959Z,13.73
2023-05-02T20:04:01.532Z,14.73
2023-05-02T20:06:07.025Z,14.85
2023-05-02T20:08:12.558Z,13.68
2023-05-02T20:10:18.461Z,16.65
2023-05-02T20:12:26.172Z,13.60
2023-05-02T20:14:31.945Z,15.80
2023-05-02T20:16:37.073Z,15.35
2023-05-02T20:18:42.380Z,15.27
2023-05-02T20:20:47.480Z,13.93
2023-05-02T20:22:54.575Z,17.52
2023-05-02T20:24:59.939Z,15.32
2023-05-02T20:27:05.876Z,17.70
2023-05-02T20:29:13.742Z,15.13
2023-05-02T20:31:18.766Z,12.77
2023-05-02T20:33:27.485Z,17.08
2023-05-02T20:35:35.672Z,12.65
2023-05-02T20:37:40.888Z,14.68
2023-05-02T20:39:46.195Z,15.77
2023-05-02T20:41:51.718Z,18.70
2023-05-02T20:43:57.336Z,12.45
2023-05-02T20:46:12.980Z,21.52
2023-05-02T20:48:20.000Z,12.32
2023-05-02T20:50:25.714Z,19.52
2023-05-02T20:52:30.883Z,12.85
2023-05-02T20:54:36.550Z,13.85
2023-05-02T20:56:41.955Z,14.63
2023-05-02T20:58:46.981Z,18.88
2023-05-02T21:00:52.822Z,17.27
2023-05-02T21:03:00.527Z,12.15
2023-05-02T21:05:06.627Z,11.52
2023-05-02T21:07:11.746Z,14.50
2023-05-02T21:09:18.791Z,12.95
2023-05-02T21:11:23.876Z,17.05
2023-05-02T21:13:28.968Z,18.80
2023-05-02T21:15:38.642Z,17.48
2023-05-02T21:17:43.737Z,18.95
2023-05-02T21:19:51.320Z,18.63
2023-05-02T21:21:56.322Z,15.82
2023-05-02T21:24:01.386Z,17.15
2023-05-02T21:26:07.221Z,18.38
2023-05-02T21:28:12.221Z,12.10
2023-05-02T21:30:18.075Z,17.27
2023-05-02T21:32:24.019Z,18.13
2023-05-02T21:34:29.350Z,16.92
2023-05-02T21:36:37.542Z,13.82
2023-05-02T21:38:42.647Z,15.98
2023-05-02T21:40:47.654Z,27.88
2023-05-02T21:42:52.644Z,19.05
2023-05-02T21:44:58.472Z,21.00
2023-05-02T21:47:03.845Z,19.75
2023-05-02T21:49:08.985Z,15.07
2023-05-02T21:51:15.183Z,18.35
2023-05-02T21:53:22.816Z,14.85
2023-05-02T21:55:28.754Z,13.52
2023-05-02T21:57:33.803Z,16.80
2023-05-02T21:59:38.807Z,17.35
2023-05-02T22:01:44.093Z,17.20
2023-05-02T22:03:49.132Z,18.75
2023-05-02T22:05:54.688Z,16.45
2023-05-02T22:08:00.878Z,20.83
2023-05-02T22:10:10.265Z,13.27
2023-05-02T22:12:15.537Z,15.35
2023-05-02T22:14:22.086Z,19.27
2023-05-02T22:16:29.380Z,14.48
2023-05-02T22:18:34.515Z,19.15
2023-05-02T22:20:39.526Z,16.83
2023-05-02T22:22:44.809Z,15.50
2023-05-02T22:24:50.087Z,14.82
2023-05-02T22:26:58.597Z,14.52
2023-05-02T22:29:03.620Z,18.40
2023-05-02T22:31:08.984Z,14.27
2023-05-02T22:33:14.852Z,16.60
2023-05-02T22:35:20.138Z,19.85
2023-05-02T22:37:25.189Z,15.05
2023-05-02T22:39:30.759Z,17.45
2023-05-02T22:41:35.863Z,21.65
2023-05-02T22:43:43.480Z,18.75
2023-05-02T22:45:51.347Z,18.73
2023-05-02T22:47:56.636Z,19.25
2023-05-02T22:50:05.498Z,19.45
2023-05-02T22:52:10.861Z,24.80
2023-05-02T22:54:16.995Z,19.50
2023-05-02T22:56:22.057Z,20.60
2023-05-02T22:58:27.227Z,19.88
2023-05-02T23:00:34.955Z,20.95
2023-05-02T23:02:40.341Z,15.27
2023-05-02T23:04:45.961Z,15.05
2023-05-02T23:06:51.076Z,23.58
2023-05-02T23:08:56.112Z,13.65
2023-05-02T23:11:01.114Z,18.60
2023-05-02T23:13:06.733Z,17.40
2023-05-02T23:15:13.332Z,15.50
2023-05-02T23:17:20.960Z,21.40
2023-05-02T23:19:26.100Z,17.23
2023-05-02T23:21:31.148Z,16.27
2023-05-02T23:23:36.167Z,15.73
2023-05-02T23:25:42.749Z,18.70
2023-05-02T23:27:47.808Z,17.65
2023-05-02T23:29:52.951Z,16.08
2023-05-02T23:31:58.188Z,21.67
2023-05-02T23:34:05.924Z,18.73
2023-05-02T23:36:12.458Z,23.85
2023-05-02T23:38:17.612Z,23.98
2023-05-02T23:40:22.714Z,20.85
2023-05-02T23:42:27.781Z,29.40
2023-05-02T23:44:33.245Z,20.45
2023-05-02T23:46:38.371Z,18.05
2023-05-02T23:48:43.555Z,20.73
2023-05-02T23:50:51.356Z,21.80
2023-05-02T23:52:56.386Z,21.90
2023-05-02T23:55:01.437Z,19.58
2023-05-02T23:57:06.521Z,19.80
2023-05-02T23:59:11.577Z,16.42
